createdAt,value
2023-02-12T00:01:20.293Z,33.38
2023-02-12T00:03:23.206Z,37.53
2023-02-12T00:05:25.455Z,37.08
2023-02-12T00:07:30.218Z,38.58
2023-02-12T00:09:33.403Z,34.38
2023-02-12T00:11:35.890Z,33.05
2023-02-12T00:13:42.602Z,36.20
2023-02-12T00:15:45.278Z,35.95
2023-02-12T00:17:48.477Z,33.58
2023-02-12T00:19:50.198Z,33.47
2023-02-12T00:21:53.220Z,36.22
2023-02-12T00:23:55.074Z,35.35
2023-02-12T00:25:58.528Z,32.75
2023-02-12T00:28:02.988Z,33.58
2023-02-12T00:30:06.428Z,34.60
2023-02-12T00:32:08.545Z,37.40
2023-02-12T00:34:11.882Z,35.75
2023-02-12T00:36:16.289Z,34.47
2023-02-12T00:38:17.921Z,36.85
2023-02-12T00:40:20.622Z,35.97
2023-02-12T00:42:23.715Z,33.75
2023-02-12T00:44:27.957Z,33.75
2023-02-12T00:46:29.875Z,36.22
2023-02-12T00:48:31.970Z,36.47
2023-02-12T00:50:33.716Z,38.63
2023-02-12T00:52:35.437Z,34.80
2023-02-12T00:54:37.224Z,38.17
2023-02-12T00:56:39.276Z,36.45
2023-02-12T00:58:42.690Z,35.75
2023-02-12T01:00:47.413Z,35.95
2023-02-12T01:02:49.397Z,36.03
2023-02-12T01:04:51.213Z,36.47
2023-02-12T01:06:53.141Z,35.97
2023-02-12T01:08:54.877Z,34.80
2023-02-12T01:10:58.069Z,39.53
2023-02-12T01:12:59.728Z,34.35
2023-02-12T01:15:06.076Z,37.78
2023-02-12T01:17:08.136Z,41.42
2023-02-12T01:19:12.432Z,37.33
2023-02-12T01:21:18.098Z,36.88
2023-02-12T01:23:21.170Z,39.05
2023-02-12T01:25:23.039Z,34.53
2023-02-12T01:27:24.702Z,35.13
2023-02-12T01:29:28.245Z,36.70
2023-02-12T01:31:33.495Z,37.47
2023-02-12T01:33:35.695Z,37.88
2023-02-12T01:35:40.256Z,35.30
2023-02-12T01:37:42.501Z,33.55
2023-02-12T01:39:44.779Z,37.35
2023-02-12T01:41:49.197Z,34.13
2023-02-12T01:44:15.210Z,37.50
2023-02-12T01:46:16.853Z,37.08
2023-02-12T01:48:26.484Z,34.65
2023-02-12T01:50:35.966Z,36.13
2023-02-12T01:52:40.572Z,34.10
2023-02-12T01:54:43.272Z,33.60
2023-02-12T01:56:45.321Z,32.83
2023-02-12T01:58:50.429Z,34.80
2023-02-12T02:00:52.763Z,33.42
2023-02-12T02:02:58.389Z,35.38
2023-02-12T02:05:03.627Z,34.58
2023-02-12T02:07:07.093Z,35.08
2023-02-12T02:09:09.318Z,33.40
2023-02-12T02:11:10.945Z,39.13
2023-02-12T02:13:12.710Z,35.25
2023-02-12T02:15:14.544Z,38.80
2023-02-12T02:17:28.858Z,38.97
2023-02-12T02:19:50.477Z,34.40
2023-02-12T02:22:14.365Z,39.22
2023-02-12T02:24:45.268Z,39.15
2023-02-12T02:27:05.454Z,39.15
2023-02-12T02:29:55.702Z,37.17
2023-02-12T02:32:03.426Z,33.42
2023-02-12T02:34:11.389Z,38.88
2023-02-12T02:36:19.291Z,36.22
2023-02-12T02:38:29.250Z,37.90
2023-02-12T02:40:37.757Z,34.95
2023-02-12T02:42:44.641Z,35.38
2023-02-12T02:44:50.937Z,35.03
2023-02-12T02:46:53.977Z,33.47
2023-02-12T02:49:01.929Z,38.13
2023-02-12T02:51:08.313Z,36.65
2023-02-12T02:53:15.614Z,33.92
2023-02-12T02:55:20.267Z,34.85
2023-02-12T02:57:28.436Z,34.10
2023-02-12T02:59:35.228Z,33.53
2023-02-12T03:01:43.007Z,35.50
2023-02-12T03:03:49.690Z,33.58
2023-02-12T03:05:58.559Z,34.53
2023-02-12T03:08:06.543Z,34.97
2023-02-12T03:10:14.290Z,34.15
2023-02-12T03:12:21.383Z,36.35
2023-02-12T03:14:28.159Z,34.65
2023-02-12T03:16:33.416Z,33.65
2023-02-12T03:18:41.383Z,34.83
2023-02-12T03:20:47.396Z,37.22
2023-02-12T03:22:56.100Z,34.80
2023-02-12T03:25:03.517Z,38.78
2023-02-12T03:27:09.798Z,36.30
2023-02-12T03:29:12.362Z,35.65
2023-02-12T03:31:25.470Z,35.50
2023-02-12T03:33:34.716Z,30.52
2023-02-12T03:35:45.992Z,35.35
2023-02-12T03:37:56.823Z,34.40
2023-02-12T03:40:06.715Z,33.47
2023-02-12T03:42:13.482Z,36.42
2023-02-12T03:44:23.199Z,31.85
2023-02-12T03:46:34.683Z,36.53
2023-02-12T03:48:41.840Z,31.23
2023-02-12T03:50:49.748Z,33.90
2023-02-12T03:52:52.777Z,33.50
2023-02-12T03:54:54.469Z,34.13
2023-02-12T03:57:02.534Z,37.70
2023-02-12T03:59:13.374Z,37.58
2023-02-12T04:01:15.309Z,36.22
2023-02-12T04:03:16.924Z,31.73
2023-02-12T04:05:21.737Z,35.70
2023-02-12T04:07:23.323Z,34.15
2023-02-12T04:09:27.787Z,32.67
2023-02-12T04:11:39.967Z,31.23
2023-02-12T04:13:45.898Z,37.15
2023-02-12T04:16:05.226Z,34.88
2023-02-12T04:18:17.302Z,31.75
2023-02-12T04:20:27.566Z,32.97
2023-02-12T04:22:43.120Z,31.95
2023-02-12T04:24:55.201Z,30.30
2023-02-12T04:27:03.248Z,33.53
2023-02-12T04:29:17.786Z,35.33
2023-02-12T04:31:29.301Z,32.35
2023-02-12T04:33:38.943Z,32.75
2023-02-12T04:35:45.978Z,34.22
2023-02-12T04:38:08.256Z,39.60
2023-02-12T04:40:42.862Z,31.75
2023-02-12T04:45:05.642Z,32.15
2023-02-12T04:52:36.760Z,32.70
2023-02-12T04:54:53.783Z,31.30
2023-02-12T04:57:06.014Z,29.83
2023-02-12T04:59:11.121Z,29.77
2023-02-12T05:01:13.021Z,32.78
2023-02-12T05:03:14.616Z,33.15
2023-02-12T05:05:19.271Z,31.65
2023-02-12T05:07:20.926Z,33.28
2023-02-12T05:09:25.306Z,30.80
2023-02-12T05:11:41.042Z,31.23
2023-02-12T05:13:59.777Z,31.27
2023-02-12T05:18:46.512Z,32.10
2023-02-12T05:21:09.064Z,31.17
2023-02-12T05:23:13.605Z,29.75
2023-02-12T05:25:19.884Z,29.83
2023-02-12T05:27:43.142Z,31.42
2023-02-12T05:29:46.073Z,32.28
2023-02-12T05:32:03.182Z,33.13
2023-02-12T05:34:22.151Z,32.72
2023-02-12T05:36:26.716Z,30.25
2023-02-12T05:38:28.516Z,32.40
2023-02-12T05:40:30.244Z,32.17
2023-02-12T05:42:35.107Z,33.45
2023-02-12T05:44:57.507Z,33.58
2023-02-12T05:47:08.008Z,32.17
2023-02-12T05:49:09.852Z,30.95
2023-02-12T05:54:29.505Z,34.35
2023-02-12T05:56:40.365Z,30.38
2023-02-12T06:01:23.604Z,33.90
2023-02-12T06:03:27.804Z,34.75
2023-02-12T06:05:41.171Z,31.05
2023-02-12T06:07:48.672Z,35.58
2023-02-12T06:10:02.613Z,31.80
2023-02-12T06:12:07.317Z,34.35
2023-02-12T06:14:16.769Z,33.67
2023-02-12T06:17:05.242Z,34.03
2023-02-12T06:19:40.017Z,32.67
2023-02-12T06:21:44.645Z,32.72
2023-02-12T06:23:59.312Z,33.92
2023-02-12T06:26:00.943Z,33.75
2023-02-12T06:28:08.781Z,32.20
2023-02-12T06:30:17.581Z,30.63
2023-02-12T06:32:19.276Z,33.70
2023-02-12T06:34:25.941Z,35.63
2023-02-12T06:36:30.518Z,32.38
2023-02-12T06:38:49.277Z,31.85
2023-02-12T06:43:22.075Z,34.47
2023-02-12T06:48:14.952Z,33.22
2023-02-12T06:50:31.344Z,33.70
2023-02-12T06:52:40.302Z,32.90
2023-02-12T06:54:51.041Z,38.58
2023-02-12T06:56:52.597Z,33.20
2023-02-12T06:59:16.279Z,31.20
2023-02-12T07:01:46.965Z,32.85
2023-02-12T07:06:57.970Z,32.22
2023-02-12T07:13:49.913Z,37.58
2023-02-12T07:15:52.423Z,36.33
2023-02-12T07:17:56.421Z,32.00
2023-02-12T07:25:19.800Z,44.38
2023-02-12T07:27:21.454Z,43.15
2023-02-12T07:29:23.049Z,38.60
2023-02-12T07:31:27.157Z,45.65
2023-02-12T07:33:28.809Z,41.92
2023-02-12T07:35:30.350Z,41.08
2023-02-12T07:37:31.972Z,33.35
2023-02-12T07:39:33.529Z,31.20
2023-02-12T07:41:36.845Z,34.22
2023-02-12T07:43:39.184Z,41.33
2023-02-12T07:45:40.883Z,31.95
2023-02-12T07:47:42.513Z,32.20
2023-02-12T07:49:44.138Z,92.82
2023-02-12T07:51:45.777Z,51.78
2023-02-12T07:53:48.671Z,49.22
2023-02-12T07:55:50.244Z,39.42
2023-02-12T07:57:53.206Z,35.67
2023-02-12T07:59:54.991Z,34.17
2023-02-12T08:01:56.869Z,30.50
2023-02-12T08:03:59.933Z,31.50
2023-02-12T08:06:09.960Z,31.05
2023-02-12T08:08:11.547Z,29.48
2023-02-12T08:10:13.222Z,29.23
2023-02-12T08:12:14.818Z,31.70
2023-02-12T08:14:19.442Z,28.98
2023-02-12T08:16:23.143Z,39.47
2023-02-12T08:18:24.718Z,34.85
2023-02-12T08:20:26.452Z,32.70
2023-02-12T08:22:30.471Z,34.90
2023-02-12T08:24:32.384Z,35.42
2023-02-12T08:26:36.409Z,36.90
2023-02-12T08:28:39.627Z,32.80
2023-02-12T08:30:42.582Z,69.20
2023-02-12T08:32:44.154Z,36.60
2023-02-12T08:34:45.686Z,40.28
2023-02-12T08:36:48.562Z,32.85
2023-02-12T08:38:50.535Z,36.67
2023-02-12T08:40:52.125Z,32.30
2023-02-12T08:42:53.743Z,34.83
2023-02-12T08:44:55.350Z,77.55
2023-02-12T08:46:58.436Z,52.15
2023-02-12T08:49:02.968Z,35.63
2023-02-12T08:51:06.889Z,37.97
2023-02-12T08:53:08.421Z,30.73
2023-02-12T08:55:09.960Z,36.65
2023-02-12T08:57:11.535Z,43.67
2023-02-12T08:59:15.338Z,30.80
2023-02-12T09:01:19.023Z,28.60
2023-02-12T09:03:22.391Z,31.42
2023-02-12T09:05:23.910Z,28.42
2023-02-12T09:07:25.544Z,27.75
2023-02-12T09:09:27.801Z,28.48
2023-02-12T09:11:29.449Z,47.13
2023-02-12T09:13:31.020Z,28.10
2023-02-12T09:15:37.191Z,29.55
2023-02-12T09:17:38.800Z,26.83
2023-02-12T09:19:41.751Z,32.88
2023-02-12T09:21:43.360Z,35.78
2023-02-12T09:23:44.931Z,27.23
2023-02-12T09:25:47.201Z,27.55
2023-02-12T09:27:48.816Z,26.88
2023-02-12T09:29:50.423Z,36.00
2023-02-12T09:31:52.082Z,34.42
2023-02-12T09:33:55.571Z,38.80
2023-02-12T09:36:02.470Z,44.47
2023-02-12T09:38:04.327Z,35.58
2023-02-12T09:40:08.283Z,34.42
2023-02-12T09:42:25.357Z,36.40
2023-02-12T09:44:34.052Z,37.50
2023-02-12T09:46:42.601Z,30.38
2023-02-12T09:48:58.122Z,36.20
2023-02-12T09:51:06.657Z,39.30
2023-02-12T09:53:12.690Z,39.28
2023-02-12T09:55:18.171Z,37.97
2023-02-12T09:57:24.794Z,36.85
2023-02-12T09:59:33.378Z,34.05
2023-02-12T10:01:35.852Z,35.47
2023-02-12T10:03:37.472Z,34.47
2023-02-12T10:05:42.725Z,35.53
2023-02-12T10:07:59.330Z,33.47
2023-02-12T10:10:13.764Z,35.13
2023-02-12T10:12:23.591Z,40.58
2023-02-12T10:14:49.418Z,32.65
2023-02-12T10:17:03.697Z,38.85
2023-02-12T10:19:21.003Z,32.38
2023-02-12T10:21:37.105Z,34.55
2023-02-12T10:24:22.466Z,35.30
2023-02-12T10:26:29.257Z,38.70
2023-02-12T10:28:34.544Z,41.92
2023-02-12T10:30:43.578Z,36.95
2023-02-12T10:32:47.641Z,39.40
2023-02-12T10:34:51.006Z,39.78
2023-02-12T10:36:58.055Z,34.95
2023-02-12T10:39:04.675Z,35.05
2023-02-12T10:41:09.513Z,36.47
2023-02-12T10:43:13.163Z,35.42
2023-02-12T10:45:17.089Z,36.08
2023-02-12T10:47:21.492Z,36.15
2023-02-12T10:49:23.417Z,37.78
2023-02-12T10:51:56.291Z,33.80
2023-02-12T10:54:18.073Z,38.72
2023-02-12T10:56:22.530Z,33.75
2023-02-12T10:58:24.297Z,42.50
2023-02-12T11:00:30.676Z,34.55
2023-02-12T11:02:34.038Z,39.80
2023-02-12T11:04:35.668Z,36.75
2023-02-12T11:06:37.400Z,33.40
2023-02-12T11:08:39.321Z,39.40
2023-02-12T11:10:41.924Z,33.65
2023-02-12T11:12:45.163Z,35.60
2023-02-12T11:14:49.857Z,41.20
2023-02-12T11:16:53.828Z,39.90
2023-02-12T11:18:59.397Z,37.08
2023-02-12T11:21:04.451Z,32.83
2023-02-12T11:23:22.527Z,33.20
2023-02-12T11:25:27.779Z,38.17
2023-02-12T11:27:31.068Z,31.52
2023-02-12T11:29:34.029Z,36.78
2023-02-12T11:31:38.700Z,35.90
2023-02-12T11:33:40.416Z,35.45
2023-02-12T11:35:50.700Z,37.72
2023-02-12T11:37:55.647Z,40.20
2023-02-12T11:39:57.405Z,36.45
2023-02-12T11:42:02.398Z,37.55
2023-02-12T11:44:10.284Z,33.85
2023-02-12T11:46:20.935Z,32.20
2023-02-12T11:48:26.105Z,55.15
2023-02-12T11:50:30.270Z,40.78
2023-02-12T11:52:35.426Z,41.78
2023-02-12T11:54:41.784Z,40.70
2023-02-12T11:56:45.347Z,33.10
2023-02-12T11:58:47.583Z,31.85
2023-02-12T12:00:55.508Z,30.35
2023-02-12T12:03:04.595Z,32.22
2023-02-12T12:05:11.853Z,55.42
2023-02-12T12:07:18.961Z,40.05
2023-02-12T12:09:25.197Z,26.30
2023-02-12T12:11:33.722Z,24.13
2023-02-12T12:13:41.338Z,28.80
2023-02-12T12:15:48.242Z,31.10
2023-02-12T12:17:53.415Z,22.73
2023-02-12T12:20:03.071Z,18.33
2023-02-12T12:22:12.768Z,18.13
2023-02-12T12:24:18.483Z,16.20
2023-02-12T12:26:23.550Z,13.98
2023-02-12T12:28:33.066Z,18.85
2023-02-12T12:31:02.317Z,15.18
2023-02-12T12:33:09.039Z,18.23
2023-02-12T12:35:18.426Z,11.88
2023-02-12T12:37:33.803Z,12.05
2023-02-12T12:39:43.249Z,12.40
2023-02-12T12:42:14.510Z,10.20
2023-02-12T12:44:34.495Z,14.45
2023-02-12T12:46:56.316Z,7.43
2023-02-12T12:49:13.907Z,8.80
2023-02-12T12:51:28.982Z,7.72
2023-02-12T12:53:46.442Z,8.43
2023-02-12T12:56:09.445Z,7.70
2023-02-12T12:58:19.809Z,6.50
2023-02-12T13:00:36.999Z,11.00
2023-02-12T13:03:13.410Z,7.70
2023-02-12T13:05:49.718Z,7.90
2023-02-12T13:08:06.652Z,6.33
2023-02-12T13:10:25.139Z,5.77
2023-02-12T13:13:02.689Z,6.43
2023-02-12T13:15:18.165Z,8.03
2023-02-12T13:17:25.688Z,5.93
2023-02-12T13:19:39.819Z,10.47
2023-02-12T13:21:48.561Z,8.03
2023-02-12T13:23:57.402Z,10.63
2023-02-12T13:26:07.590Z,7.10
2023-02-12T13:28:15.368Z,8.33
2023-02-12T13:30:25.571Z,7.20
2023-02-12T13:32:29.481Z,9.80
2023-02-12T13:34:34.565Z,8.50
2023-02-12T13:36:37.894Z,8.27
2023-02-12T13:38:44.132Z,7.10
2023-02-12T13:40:48.456Z,7.33
2023-02-12T13:42:56.644Z,8.17
2023-02-12T13:45:07.690Z,7.63
2023-02-12T13:47:18.630Z,8.87
2023-02-12T13:49:30.589Z,8.90
2023-02-12T13:51:42.604Z,9.02
2023-02-12T13:53:55.615Z,8.77
2023-02-12T13:56:06.964Z,8.73
2023-02-12T13:58:40.154Z,9.27
2023-02-12T14:00:58.331Z,8.82
2023-02-12T14:03:08.395Z,10.40
2023-02-12T14:05:28.554Z,8.80
2023-02-12T14:07:42.593Z,9.85
2023-02-12T14:09:46.619Z,12.73
2023-02-12T14:11:53.304Z,8.43
2023-02-12T14:13:57.623Z,9.57
2023-02-12T14:16:17.822Z,9.55
2023-02-12T14:18:29.514Z,11.77
2023-02-12T14:20:32.512Z,12.80
2023-02-12T14:23:03.964Z,12.13
2023-02-12T14:25:30.947Z,15.63
2023-02-12T14:27:41.924Z,11.10
2023-02-12T14:30:01.489Z,10.87
2023-02-12T14:32:03.363Z,10.30
2023-02-12T14:34:47.599Z,11.50
2023-02-12T14:37:10.305Z,13.05
2023-02-12T14:39:29.880Z,13.07
2023-02-12T14:41:34.480Z,14.63
2023-02-12T14:43:38.450Z,13.30
2023-02-12T14:45:40.089Z,11.43
2023-02-12T14:47:51.281Z,13.77
2023-02-12T14:49:53.907Z,10.13
2023-02-12T14:52:00.114Z,11.10
2023-02-12T14:54:04.487Z,13.00
2023-02-12T14:56:07.364Z,12.20
2023-02-12T14:58:18.418Z,12.50
2023-02-12T15:00:27.235Z,13.68
2023-02-12T15:02:32.807Z,15.00
2023-02-12T15:04:38.214Z,13.27
2023-02-12T15:06:48.852Z,13.23
2023-02-12T15:08:56.162Z,13.07
2023-02-12T15:11:06.752Z,12.45
2023-02-12T15:13:18.325Z,13.45
2023-02-12T15:15:28.549Z,12.50
2023-02-12T15:17:34.747Z,14.93
2023-02-12T15:19:43.185Z,11.70
2023-02-12T15:21:45.062Z,14.13
2023-02-12T15:23:48.346Z,15.43
2023-02-12T15:25:51.131Z,14.70
2023-02-12T15:27:57.267Z,14.30
2023-02-12T15:29:58.861Z,16.93
2023-02-12T15:32:04.847Z,15.95
2023-02-12T15:34:06.850Z,16.02
2023-02-12T15:36:10.807Z,17.50
2023-02-12T15:38:20.972Z,17.48
2023-02-12T15:40:22.919Z,18.85
2023-02-12T15:42:26.953Z,19.95
2023-02-12T15:44:31.232Z,17.17
2023-02-12T15:46:32.895Z,21.83
2023-02-12T15:48:37.005Z,20.70
2023-02-12T15:50:48.966Z,18.55
2023-02-12T15:52:51.714Z,20.98
2023-02-12T15:54:53.361Z,20.27
2023-02-12T15:56:55.483Z,24.43
2023-02-12T15:58:59.230Z,22.93
2023-02-12T16:01:04.204Z,23.90
2023-02-12T16:03:06.216Z,23.20
2023-02-12T16:05:14.604Z,27.40
2023-02-12T16:07:17.885Z,22.10
2023-02-12T16:09:26.489Z,21.23
2023-02-12T16:11:29.605Z,22.37
2023-02-12T16:13:33.851Z,23.60
2023-02-12T16:15:35.582Z,23.58
2023-02-12T16:17:37.391Z,25.77
2023-02-12T16:19:39.280Z,20.85
2023-02-12T16:21:42.377Z,22.08
2023-02-12T16:23:44.638Z,21.27
2023-02-12T16:25:54.209Z,25.17
2023-02-12T16:28:00.908Z,22.50
2023-02-12T16:30:05.883Z,24.17
2023-02-12T16:32:07.559Z,23.13
2023-02-12T16:34:28.188Z,22.67
2023-02-12T16:36:31.814Z,27.60
2023-02-12T16:38:44.419Z,25.98
2023-02-12T16:41:23.688Z,23.23
2023-02-12T16:43:26.804Z,26.70
2023-02-12T16:45:40.508Z,24.77
2023-02-12T16:47:42.153Z,29.48
2023-02-12T16:49:54.116Z,22.33
2023-02-12T16:52:28.232Z,26.27
2023-02-12T16:54:33.477Z,26.77
2023-02-12T16:56:37.919Z,32.92
2023-02-12T16:58:39.534Z,30.00
2023-02-12T17:00:41.284Z,28.73
2023-02-12T17:02:43.162Z,27.08
2023-02-12T17:04:44.739Z,26.93
2023-02-12T17:06:46.340Z,26.48
2023-02-12T17:08:48.249Z,28.63
2023-02-12T17:10:51.501Z,28.40
2023-02-12T17:12:53.142Z,28.10
2023-02-12T17:14:55.098Z,27.85
2023-02-12T17:16:56.633Z,28.58
2023-02-12T17:18:58.616Z,30.17
2023-02-12T17:21:03.689Z,29.65
2023-02-12T17:23:05.882Z,23.98
2023-02-12T17:25:07.512Z,31.03
2023-02-12T17:27:10.690Z,27.45
2023-02-12T17:29:12.393Z,29.58
2023-02-12T17:31:14.579Z,32.50
2023-02-12T17:33:16.716Z,38.40
2023-02-12T17:35:18.821Z,33.10
2023-02-12T17:37:20.409Z,32.90
2023-02-12T17:39:21.969Z,33.00
2023-02-12T17:41:23.734Z,33.50
2023-02-12T17:43:26.729Z,32.03
2023-02-12T17:45:28.381Z,33.10
2023-02-12T17:47:29.953Z,33.03
2023-02-12T17:49:31.500Z,33.70
2023-02-12T17:51:33.251Z,31.23
2023-02-12T17:53:34.930Z,29.42
2023-02-12T17:55:38.325Z,28.25
2023-02-12T17:57:39.959Z,25.80
2023-02-12T17:59:43.305Z,27.55
2023-02-12T18:01:44.858Z,31.10
2023-02-12T18:03:46.601Z,29.60
2023-02-12T18:05:48.371Z,29.38
2023-02-12T18:07:50.263Z,32.03
2023-02-12T18:09:51.877Z,30.02
2023-02-12T18:11:53.797Z,29.52
2023-02-12T18:13:58.882Z,28.83
2023-02-12T18:16:02.266Z,38.40
2023-02-12T18:18:03.976Z,31.17
2023-02-12T18:20:07.111Z,30.70
2023-02-12T18:22:08.775Z,31.67
2023-02-12T18:24:10.853Z,27.75
2023-02-12T18:26:14.505Z,27.92
2023-02-12T18:28:16.328Z,31.58
2023-02-12T18:30:18.496Z,34.03
2023-02-12T18:32:21.511Z,35.13
2023-02-12T18:34:23.084Z,33.58
2023-02-12T18:36:24.686Z,34.78
2023-02-12T18:38:26.878Z,34.20
2023-02-12T18:40:28.626Z,31.80
2023-02-12T18:42:30.868Z,31.50
2023-02-12T18:44:32.474Z,27.85
2023-02-12T18:46:34.101Z,32.47
2023-02-12T18:48:37.191Z,36.35
2023-02-12T18:50:38.834Z,31.10
2023-02-12T18:52:40.396Z,35.85
2023-02-12T18:54:42.064Z,36.30
2023-02-12T18:56:45.345Z,37.50
2023-02-12T18:58:46.923Z,42.50
2023-02-12T19:00:49.071Z,45.13
2023-02-12T19:02:50.672Z,44.47
2023-02-12T19:04:53.757Z,49.20
2023-02-12T19:06:55.886Z,48.03
2023-02-12T19:08:59.062Z,52.33
2023-02-12T19:11:00.665Z,44.35
2023-02-12T19:13:02.300Z,42.45
2023-02-12T19:15:04.534Z,46.33
2023-02-12T19:17:06.093Z,42.80
2023-02-12T19:19:08.217Z,37.08
2023-02-12T19:21:13.867Z,34.42
2023-02-12T19:23:15.644Z,33.33
2023-02-12T19:25:17.323Z,36.20
2023-02-12T19:27:19.027Z,34.70
2023-02-12T19:29:20.632Z,36.80
2023-02-12T19:31:24.657Z,37.65
2023-02-12T19:33:26.253Z,41.55
2023-02-12T19:35:28.072Z,38.58
2023-02-12T19:37:31.073Z,41.22
2023-02-12T19:39:32.655Z,37.05
2023-02-12T19:41:35.391Z,43.85
2023-02-12T19:43:38.083Z,40.03
2023-02-12T19:45:39.629Z,36.80
2023-02-12T19:47:41.215Z,39.63
2023-02-12T19:49:43.120Z,36.22
2023-02-12T19:51:45.086Z,32.20
2023-02-12T19:53:48.600Z,37.25
2023-02-12T19:55:50.257Z,47.22
2023-02-12T19:57:51.785Z,31.70
2023-02-12T19:59:53.440Z,30.50
2023-02-12T20:01:54.991Z,30.65
2023-02-12T20:03:57.942Z,30.40
2023-02-12T20:06:01.387Z,29.17
2023-02-12T20:08:03.060Z,34.58
2023-02-12T20:10:07.600Z,31.23
2023-02-12T20:12:09.209Z,32.08
2023-02-12T20:14:12.525Z,27.95
2023-02-12T20:16:17.599Z,27.75
2023-02-12T20:18:19.316Z,27.13
2023-02-12T20:20:21.036Z,30.75
2023-02-12T20:22:24.605Z,27.58
2023-02-12T20:24:28.048Z,29.20
2023-02-12T20:26:32.961Z,24.95
2023-02-12T20:28:35.620Z,27.65
2023-02-12T20:30:39.691Z,30.48
2023-02-12T20:32:41.513Z,22.58
2023-02-12T20:34:50.836Z,23.33
2023-02-12T20:36:52.892Z,23.20
2023-02-12T20:38:55.745Z,21.05
2023-02-12T20:41:00.152Z,20.10
2023-02-12T20:43:03.207Z,20.25
2023-02-12T20:45:08.075Z,20.85
2023-02-12T20:47:09.691Z,22.25
2023-02-12T20:49:12.487Z,21.20
2023-02-12T20:51:16.345Z,21.05
2023-02-12T20:53:17.899Z,20.90
2023-02-12T20:55:19.673Z,21.70
2023-02-12T20:57:21.216Z,20.83
2023-02-12T20:59:24.149Z,19.85
2023-02-12T21:01:27.754Z,49.80
2023-02-12T21:03:29.430Z,21.67
2023-02-12T21:05:31.103Z,33.53
2023-02-12T21:07:32.717Z,26.60
2023-02-12T21:09:34.277Z,46.38
2023-02-12T21:11:36.415Z,32.20
2023-02-12T21:13:38.243Z,44.20
2023-02-12T21:15:42.466Z,37.20
2023-02-12T21:17:44.119Z,38.28
2023-02-12T21:19:45.947Z,38.78
2023-02-12T21:21:47.562Z,29.23
2023-02-12T21:23:49.194Z,34.45
2023-02-12T21:25:58.311Z,32.28
2023-02-12T21:27:59.961Z,32.38
2023-02-12T21:30:01.528Z,32.47
2023-02-12T21:32:04.895Z,31.13
2023-02-12T21:34:08.046Z,35.83
2023-02-12T21:36:12.885Z,35.00
2023-02-12T21:38:14.660Z,34.10
2023-02-12T21:40:16.687Z,35.75
2023-02-12T21:42:18.580Z,26.77
2023-02-12T21:44:21.053Z,24.83
2023-02-12T21:46:23.066Z,28.98
2023-02-12T21:48:26.038Z,27.70
2023-02-12T21:50:27.641Z,24.45
2023-02-12T21:52:29.245Z,26.50
2023-02-12T21:54:31.504Z,22.70
2023-02-12T21:56:33.612Z,21.92
2023-02-12T21:58:35.225Z,21.38
2023-02-12T22:00:37.003Z,20.70
2023-02-12T22:02:38.621Z,17.70
2023-02-12T22:04:41.576Z,18.23
2023-02-12T22:06:45.017Z,15.93
2023-02-12T22:08:47.047Z,16.73
2023-02-12T22:10:48.641Z,21.85
2023-02-12T22:12:50.280Z,17.13
2023-02-12T22:14:51.879Z,16.65
2023-02-12T22:16:53.688Z,18.30
2023-02-12T22:18:57.774Z,18.13
2023-02-12T22:21:02.031Z,21.10
2023-02-12T22:23:03.830Z,18.23
2023-02-12T22:25:06.378Z,21.98
2023-02-12T22:27:07.998Z,15.88
2023-02-12T22:29:12.096Z,18.27
2023-02-12T22:31:17.240Z,18.10
2023-02-12T22:33:18.946Z,17.17
2023-02-12T22:35:20.620Z,15.95
2023-02-12T22:37:23.616Z,16.08
2023-02-12T22:39:26.864Z,17.13
2023-02-12T22:41:29.143Z,15.18
2023-02-12T22:43:32.048Z,14.80
2023-02-12T22:45:33.690Z,19.27
2023-02-12T22:47:35.501Z,14.80
2023-02-12T22:49:37.059Z,14.98
2023-02-12T22:51:39.601Z,18.65
2023-02-12T22:53:42.837Z,17.20
2023-02-12T22:55:44.403Z,16.77
2023-02-12T22:57:46.306Z,15.82
2023-02-12T22:59:48.210Z,16.00
2023-02-12T23:01:49.755Z,17.90
2023-02-12T23:03:51.771Z,17.08
2023-02-12T23:05:53.771Z,14.63
2023-02-12T23:07:55.330Z,13.20
2023-02-12T23:09:58.346Z,18.05
2023-02-12T23:11:59.961Z,13.73
2023-02-12T23:14:01.661Z,15.02
2023-02-12T23:16:04.041Z,16.02
2023-02-12T23:18:05.664Z,17.92
2023-02-12T23:20:08.254Z,16.35
2023-02-12T23:22:10.000Z,15.63
2023-02-12T23:24:13.714Z,14.93
2023-02-12T23:26:16.728Z,14.73
2023-02-12T23:28:18.562Z,17.88
2023-02-12T23:30:20.571Z,16.55
2023-02-12T23:32:22.330Z,17.77
2023-02-12T23:34:23.931Z,17.00
2023-02-12T23:36:25.475Z,18.05
2023-02-12T23:38:27.002Z,18.88
2023-02-12T23:40:28.629Z,16.38
2023-02-12T23:42:31.491Z,20.27
2023-02-12T23:44:33.127Z,16.90
2023-02-12T23:46:34.799Z,18.83
2023-02-12T23:48:36.442Z,18.55
2023-02-12T23:50:38.040Z,16.60
2023-02-12T23:52:41.499Z,15.77
2023-02-12T23:54:43.213Z,20.92
2023-02-12T23:56:44.850Z,17.88
2023-02-12T23:58:47.768Z,16.05
